createdAt,value
2018-06-19T00:00:23.630Z,0
2018-06-19T00:00:49.816Z,0
2018-06-19T00:01:15.970Z,0
2018-06-19T00:01:42.110Z,0
2018-06-19T00:02:08.243Z,0
2018-06-19T00:02:34.416Z,0
2018-06-19T00:03:00.561Z,0
2018-06-19T00:03:26.720Z,0
2018-06-19T00:03:52.860Z,0
2018-06-19T00:04:19.000Z,0
2018-06-19T00:04:45.136Z,0
2018-06-19T00:05:11.281Z,0
2018-06-19T00:05:37.420Z,0
2018-06-19T00:06:03.555Z,0
2018-06-19T00:06:29.717Z,0
2018-06-19T00:06:55.862Z,0
2018-06-19T00:07:22.005Z,0
2018-06-19T00:07:48.136Z,0
2018-06-19T00:08:14.278Z,0
2018-06-19T00:08:40.449Z,0
2018-06-19T00:09:06.671Z,0
2018-06-19T00:09:32.928Z,0
2018-06-19T00:09:59.115Z,0
2018-06-19T00:10:25.287Z,0
2018-06-19T00:10:51.530Z,0
2018-06-19T00:11:17.729Z,0
2018-06-19T00:11:43.884Z,0
2018-06-19T00:12:10.026Z,0
2018-06-19T00:12:36.157Z,0
2018-06-19T00:13:02.295Z,0
2018-06-19T00:13:28.462Z,0
2018-06-19T00:13:54.600Z,0
2018-06-19T00:14:20.764Z,0
2018-06-19T00:14:47.243Z,0
2018-06-19T00:15:13.429Z,0
2018-06-19T00:15:39.616Z,0
2018-06-19T00:16:05.793Z,0
2018-06-19T00:16:31.937Z,0
2018-06-19T00:16:58.098Z,0
2018-06-19T00:17:24.239Z,0
2018-06-19T00:17:50.375Z,0
2018-06-19T00:18:16.550Z,0
2018-06-19T00:18:42.685Z,0
2018-06-19T00:19:08.822Z,0
2018-06-19T00:19:34.962Z,0
2018-06-19T00:20:01.129Z,0
2018-06-19T00:20:27.307Z,0
2018-06-19T00:20:53.447Z,0
2018-06-19T00:21:19.591Z,0
2018-06-19T00:21:45.734Z,0
2018-06-19T00:22:11.896Z,0
2018-06-19T00:22:38.040Z,0
2018-06-19T00:23:04.179Z,0
2018-06-19T00:23:30.322Z,0
2018-06-19T00:23:56.481Z,0
2018-06-19T00:24:22.674Z,0
2018-06-19T00:24:48.885Z,0
2018-06-19T00:25:15.328Z,0
2018-06-19T00:25:41.535Z,0
2018-06-19T00:26:07.685Z,0
2018-06-19T00:26:33.821Z,0
2018-06-19T00:27:00.032Z,0
2018-06-19T00:27:26.185Z,0
2018-06-19T00:27:52.330Z,0
2018-06-19T00:28:18.470Z,0
2018-06-19T00:28:44.611Z,0
2018-06-19T00:29:10.744Z,0
2018-06-19T00:29:36.888Z,0
2018-06-19T00:30:03.053Z,0
2018-06-19T00:30:29.279Z,0
2018-06-19T00:30:55.385Z,0
2018-06-19T00:31:21.521Z,0
2018-06-19T00:31:47.735Z,0
2018-06-19T00:32:13.846Z,0
2018-06-19T00:32:40.013Z,0
2018-06-19T00:33:06.182Z,0
2018-06-19T00:33:32.614Z,0
2018-06-19T00:33:58.760Z,0
2018-06-19T00:34:24.925Z,0
2018-06-19T00:34:51.063Z,0
2018-06-19T00:35:17.201Z,0
2018-06-19T00:35:43.371Z,0
2018-06-19T00:36:09.514Z,0
2018-06-19T00:36:35.675Z,0
2018-06-19T00:37:01.816Z,0
2018-06-19T00:37:27.954Z,0
2018-06-19T00:37:54.101Z,0
2018-06-19T00:38:20.279Z,0
2018-06-19T00:38:46.403Z,0
2018-06-19T00:39:12.542Z,0
2018-06-19T00:39:38.985Z,0
2018-06-19T00:40:05.735Z,0
2018-06-19T00:40:32.041Z,0
2018-06-19T00:40:58.205Z,0
2018-06-19T00:41:24.339Z,0
2018-06-19T00:41:50.482Z,0
2018-06-19T00:42:16.622Z,0
2018-06-19T00:42:42.793Z,0
2018-06-19T00:43:08.931Z,0
2018-06-19T00:43:35.070Z,0
2018-06-19T00:44:01.211Z,0
2018-06-19T00:44:27.413Z,0
2018-06-19T00:44:53.557Z,0
2018-06-19T00:45:19.717Z,0
2018-06-19T00:45:45.878Z,0
2018-06-19T00:46:12.018Z,0
2018-06-19T00:46:38.175Z,0
2018-06-19T00:47:04.384Z,0
2018-06-19T00:47:30.525Z,0
2018-06-19T00:47:56.663Z,0
2018-06-19T00:48:22.803Z,0
2018-06-19T00:48:48.953Z,0
2018-06-19T00:49:15.097Z,0
2018-06-19T00:49:41.226Z,0
2018-06-19T00:50:07.361Z,0
2018-06-19T00:50:33.741Z,0
2018-06-19T00:50:59.887Z,0
2018-06-19T00:51:26.024Z,0
2018-06-19T00:51:52.160Z,0
2018-06-19T00:52:18.296Z,0
2018-06-19T00:52:44.441Z,0
2018-06-19T00:53:10.569Z,0
2018-06-19T00:53:36.741Z,0
2018-06-19T00:54:02.928Z,0
2018-06-19T00:54:29.074Z,0
2018-06-19T00:54:55.207Z,0
2018-06-19T00:55:21.346Z,0
2018-06-19T00:55:47.485Z,0
2018-06-19T00:56:13.624Z,0
2018-06-19T00:56:39.763Z,0
2018-06-19T00:57:05.906Z,0
2018-06-19T00:57:32.041Z,0
2018-06-19T00:57:58.186Z,0
2018-06-19T00:58:24.325Z,0
2018-06-19T00:58:50.492Z,0
2018-06-19T00:59:16.627Z,0
2018-06-19T00:59:42.770Z,0
2018-06-19T01:00:08.908Z,0
2018-06-19T01:00:35.055Z,0
2018-06-19T01:01:01.197Z,0
2018-06-19T01:01:27.334Z,0
2018-06-19T01:01:53.472Z,0
2018-06-19T01:02:19.611Z,0
2018-06-19T01:02:45.749Z,0
2018-06-19T01:03:11.888Z,0
2018-06-19T01:03:38.028Z,0
2018-06-19T01:04:04.170Z,0
2018-06-19T01:04:30.306Z,0
2018-06-19T01:04:56.444Z,0
2018-06-19T01:05:22.586Z,0
2018-06-19T01:05:48.726Z,0
2018-06-19T01:06:14.865Z,0
2018-06-19T01:06:41.007Z,0
2018-06-19T01:07:07.148Z,0
2018-06-19T01:07:33.288Z,0
2018-06-19T01:07:59.450Z,0
2018-06-19T01:08:25.593Z,0
2018-06-19T01:08:51.731Z,0
2018-06-19T01:09:17.874Z,0
2018-06-19T01:09:44.010Z,0
2018-06-19T01:10:10.150Z,0
2018-06-19T01:10:36.288Z,0
2018-06-19T01:11:02.426Z,0
2018-06-19T01:11:28.591Z,0
2018-06-19T01:11:54.729Z,0
2018-06-19T01:12:20.874Z,0
2018-06-19T01:12:47.018Z,0
2018-06-19T01:13:13.158Z,0
2018-06-19T01:13:39.293Z,0
2018-06-19T01:14:05.442Z,0
2018-06-19T01:14:31.585Z,0
2018-06-19T01:14:57.725Z,0
2018-06-19T01:15:23.865Z,0
2018-06-19T01:15:50.064Z,0
2018-06-19T01:16:16.205Z,0
2018-06-19T01:16:42.342Z,0
2018-06-19T01:17:08.483Z,0
2018-06-19T01:17:34.622Z,0
2018-06-19T01:18:00.764Z,0
2018-06-19T01:18:26.911Z,0
2018-06-19T01:18:53.057Z,0
2018-06-19T01:19:19.215Z,0
2018-06-19T01:19:45.396Z,0
2018-06-19T01:20:11.552Z,0
2018-06-19T01:20:37.697Z,0
2018-06-19T01:21:03.832Z,0
2018-06-19T01:21:29.995Z,0
2018-06-19T01:21:56.132Z,0
2018-06-19T01:22:22.268Z,0
2018-06-19T01:22:48.406Z,0
2018-06-19T01:23:14.550Z,0
2018-06-19T01:23:40.683Z,0
2018-06-19T01:24:06.832Z,0
2018-06-19T01:24:32.971Z,0
2018-06-19T01:24:59.110Z,0
2018-06-19T01:25:25.244Z,0
2018-06-19T01:25:51.385Z,0
2018-06-19T01:26:17.548Z,0
2018-06-19T01:26:43.687Z,0
2018-06-19T01:27:09.822Z,0
2018-06-19T01:27:35.965Z,0
2018-06-19T01:28:02.130Z,0
2018-06-19T01:28:28.265Z,0
2018-06-19T01:28:54.404Z,0
2018-06-19T01:29:20.546Z,0
2018-06-19T01:29:46.686Z,0
2018-06-19T01:30:12.832Z,0
2018-06-19T01:30:38.970Z,0
2018-06-19T01:31:05.103Z,0
2018-06-19T01:31:31.244Z,0
2018-06-19T01:31:57.382Z,0
2018-06-19T01:32:23.521Z,0
2018-06-19T01:32:49.661Z,0
2018-06-19T01:33:15.801Z,0
2018-06-19T01:33:41.944Z,0
2018-06-19T01:34:08.081Z,0
2018-06-19T01:34:34.220Z,0
2018-06-19T01:35:00.364Z,0
2018-06-19T01:35:26.498Z,0
2018-06-19T01:35:52.642Z,0
2018-06-19T01:36:18.779Z,0
2018-06-19T01:36:44.923Z,0
2018-06-19T01:37:11.063Z,0
2018-06-19T01:37:37.204Z,0
2018-06-19T01:38:03.395Z,0
2018-06-19T01:38:29.540Z,0
2018-06-19T01:38:55.673Z,0
2018-06-19T01:39:21.827Z,0
2018-06-19T01:39:47.964Z,0
2018-06-19T01:40:14.107Z,0
2018-06-19T01:40:40.243Z,0
2018-06-19T01:41:06.385Z,0
2018-06-19T01:41:32.527Z,0
2018-06-19T01:41:58.663Z,0
2018-06-19T01:42:24.806Z,0
2018-06-19T01:42:50.943Z,0
2018-06-19T01:43:17.086Z,0
2018-06-19T01:43:43.224Z,0
2018-06-19T01:44:09.371Z,0
2018-06-19T01:44:35.534Z,0
2018-06-19T01:45:01.676Z,0
2018-06-19T01:45:27.808Z,0
2018-06-19T01:45:53.954Z,0
2018-06-19T01:46:20.089Z,0
2018-06-19T01:46:46.248Z,0
2018-06-19T01:47:12.391Z,0
2018-06-19T01:47:38.537Z,0
2018-06-19T01:48:04.700Z,0
2018-06-19T01:48:30.838Z,0
2018-06-19T01:48:56.973Z,0
2018-06-19T01:49:23.110Z,0
2018-06-19T01:49:49.253Z,0
2018-06-19T01:50:15.392Z,0
2018-06-19T01:50:41.542Z,0
2018-06-19T01:51:07.675Z,0
2018-06-19T01:51:33.817Z,0
2018-06-19T01:51:59.956Z,0
2018-06-19T01:52:26.096Z,0
2018-06-19T01:52:52.236Z,0
2018-06-19T01:53:18.376Z,0
2018-06-19T01:53:44.511Z,0
2018-06-19T01:54:10.652Z,0
2018-06-19T01:54:36.800Z,0
2018-06-19T01:55:02.933Z,0
2018-06-19T01:55:29.069Z,0
2018-06-19T01:55:55.212Z,0
2018-06-19T01:56:21.348Z,0
2018-06-19T01:56:47.508Z,0
2018-06-19T01:57:13.653Z,0
2018-06-19T01:57:39.792Z,0
2018-06-19T01:58:05.953Z,0
2018-06-19T01:58:32.090Z,0
2018-06-19T01:58:58.233Z,0
2018-06-19T01:59:24.370Z,0
2018-06-19T01:59:50.526Z,0
2018-06-19T02:00:16.684Z,0
2018-06-19T02:00:42.823Z,0
2018-06-19T02:01:08.977Z,0
2018-06-19T02:01:35.113Z,0
2018-06-19T02:02:01.253Z,0
2018-06-19T02:02:27.470Z,0
2018-06-19T02:02:53.632Z,0
2018-06-19T02:03:19.772Z,0
2018-06-19T02:03:45.910Z,0
2018-06-19T02:04:12.074Z,0
2018-06-19T02:04:38.235Z,0
2018-06-19T02:05:04.432Z,0
2018-06-19T02:05:30.576Z,0
2018-06-19T02:05:56.719Z,0
2018-06-19T02:06:22.855Z,0
2018-06-19T02:06:48.992Z,0
2018-06-19T02:07:15.133Z,0
2018-06-19T02:07:41.266Z,0
2018-06-19T02:08:07.408Z,0
2018-06-19T02:08:33.550Z,0
2018-06-19T02:08:59.685Z,0
2018-06-19T02:09:25.831Z,0
2018-06-19T02:09:52.016Z,0
2018-06-19T02:10:18.160Z,0
2018-06-19T02:10:44.300Z,0
2018-06-19T02:11:10.435Z,0
2018-06-19T02:11:36.580Z,0
2018-06-19T02:12:02.716Z,0
2018-06-19T02:12:28.858Z,0
2018-06-19T02:12:54.994Z,0
2018-06-19T02:13:21.167Z,0
2018-06-19T02:13:47.330Z,0
2018-06-19T02:14:13.468Z,0
2018-06-19T02:14:39.609Z,0
2018-06-19T02:15:05.751Z,0
2018-06-19T02:15:31.894Z,0
2018-06-19T02:15:58.026Z,0
2018-06-19T02:16:24.167Z,0
2018-06-19T02:16:50.306Z,0
2018-06-19T02:17:16.450Z,0
2018-06-19T02:17:42.589Z,0
2018-06-19T02:18:08.740Z,0
2018-06-19T02:18:34.884Z,0
2018-06-19T02:19:01.021Z,0
2018-06-19T02:19:27.156Z,0
2018-06-19T02:19:53.315Z,0
2018-06-19T02:20:19.459Z,0
2018-06-19T02:20:45.594Z,0
2018-06-19T02:21:11.761Z,0
2018-06-19T02:21:37.901Z,0
2018-06-19T02:22:04.046Z,0
2018-06-19T02:22:30.178Z,0
2018-06-19T02:22:56.350Z,0
2018-06-19T02:23:22.487Z,0
2018-06-19T02:23:48.625Z,0
2018-06-19T02:24:14.784Z,0
2018-06-19T02:24:40.922Z,0
2018-06-19T02:25:07.058Z,0
2018-06-19T02:25:33.225Z,0
2018-06-19T02:25:59.388Z,0
2018-06-19T02:26:25.547Z,0
2018-06-19T02:26:51.685Z,0
2018-06-19T02:27:17.827Z,0
2018-06-19T02:27:43.986Z,0
2018-06-19T02:28:10.127Z,4
2018-06-19T02:28:36.286Z,4
2018-06-19T02:29:02.418Z,4
2018-06-19T02:29:28.567Z,4
2018-06-19T02:29:54.709Z,4
2018-06-19T02:30:20.852Z,4
2018-06-19T02:30:47.023Z,0
2018-06-19T02:31:13.234Z,0
2018-06-19T02:31:39.400Z,0
2018-06-19T02:32:05.558Z,0
2018-06-19T02:32:31.702Z,4
2018-06-19T02:32:57.868Z,4
2018-06-19T02:33:24.006Z,4
2018-06-19T02:33:50.243Z,4
2018-06-19T02:34:16.373Z,4
2018-06-19T02:34:42.561Z,4
2018-06-19T02:35:08.752Z,4
2018-06-19T02:35:34.927Z,4
2018-06-19T02:36:01.087Z,0
2018-06-19T02:36:27.230Z,4
2018-06-19T02:36:53.418Z,4
2018-06-19T02:37:19.577Z,4
2018-06-19T02:37:45.736Z,4
2018-06-19T02:38:11.891Z,4
2018-06-19T02:38:38.076Z,4
2018-06-19T02:39:04.240Z,4
2018-06-19T02:39:30.382Z,4
2018-06-19T02:39:56.582Z,8
2018-06-19T02:40:22.735Z,8
2018-06-19T02:40:48.891Z,4
2018-06-19T02:41:15.066Z,4
2018-06-19T02:41:41.230Z,4
2018-06-19T02:42:07.390Z,4
2018-06-19T02:42:33.557Z,4
2018-06-19T02:42:59.699Z,4
2018-06-19T02:43:25.908Z,4
2018-06-19T02:43:52.058Z,8
2018-06-19T02:44:18.189Z,8
2018-06-19T02:44:44.347Z,8
2018-06-19T02:45:10.540Z,8
2018-06-19T02:45:36.699Z,8
2018-06-19T02:46:02.841Z,8
2018-06-19T02:46:29.026Z,8
2018-06-19T02:46:55.189Z,8
2018-06-19T02:47:21.325Z,8
2018-06-19T02:47:47.485Z,8
2018-06-19T02:48:13.647Z,12
2018-06-19T02:48:39.796Z,12
2018-06-19T02:49:05.933Z,12
2018-06-19T02:49:32.097Z,8
2018-06-19T02:49:58.265Z,12
2018-06-19T02:50:24.403Z,12
2018-06-19T02:50:50.562Z,12
2018-06-19T02:51:16.726Z,12
2018-06-19T02:51:42.868Z,16
2018-06-19T02:52:09.010Z,12
2018-06-19T02:52:35.146Z,12
2018-06-19T02:53:01.290Z,16
2018-06-19T02:53:27.454Z,16
2018-06-19T02:53:53.615Z,20
2018-06-19T02:54:19.758Z,16
2018-06-19T02:54:45.935Z,16
2018-06-19T02:55:12.106Z,20
2018-06-19T02:55:38.244Z,16
2018-06-19T02:56:04.386Z,20
2018-06-19T02:56:30.598Z,20
2018-06-19T02:56:56.761Z,24
2018-06-19T02:57:22.930Z,20
2018-06-19T02:57:49.076Z,24
2018-06-19T02:58:15.225Z,24
2018-06-19T02:58:41.362Z,28
2018-06-19T02:59:07.502Z,24
2018-06-19T02:59:33.646Z,24
2018-06-19T02:59:59.813Z,28
2018-06-19T03:00:26.061Z,28
2018-06-19T03:00:52.170Z,28
2018-06-19T03:01:18.446Z,28
2018-06-19T03:01:44.735Z,32
2018-06-19T03:02:10.969Z,28
2018-06-19T03:02:37.255Z,32
2018-06-19T03:03:03.421Z,36
2018-06-19T03:03:29.607Z,36
2018-06-19T03:03:55.916Z,40
2018-06-19T03:04:22.054Z,36
2018-06-19T03:04:48.319Z,40
2018-06-19T03:05:14.511Z,40
2018-06-19T03:05:40.693Z,44
2018-06-19T03:06:06.982Z,44
2018-06-19T03:06:33.200Z,48
2018-06-19T03:06:59.366Z,48
2018-06-19T03:07:25.505Z,48
2018-06-19T03:07:51.674Z,52
2018-06-19T03:08:17.813Z,56
2018-06-19T03:08:43.970Z,56
2018-06-19T03:09:10.126Z,60
2018-06-19T03:09:36.294Z,60
2018-06-19T03:10:02.457Z,64
2018-06-19T03:10:28.661Z,68
2018-06-19T03:10:54.851Z,72
2018-06-19T03:11:20.998Z,72
2018-06-19T03:11:47.170Z,76
2018-06-19T03:12:13.291Z,76
2018-06-19T03:12:39.429Z,80
2018-06-19T03:13:05.593Z,84
2018-06-19T03:13:31.786Z,88
2018-06-19T03:13:57.950Z,84
2018-06-19T03:14:24.090Z,88
2018-06-19T03:14:50.303Z,92
2018-06-19T03:15:16.465Z,92
2018-06-19T03:15:42.599Z,92
2018-06-19T03:16:08.766Z,96
2018-06-19T03:16:34.902Z,96
2018-06-19T03:17:01.070Z,96
2018-06-19T03:17:27.214Z,100
2018-06-19T03:17:53.375Z,100
2018-06-19T03:18:19.532Z,100
2018-06-19T03:18:45.672Z,108
2018-06-19T03:19:11.816Z,108
2018-06-19T03:19:37.977Z,108
2018-06-19T03:20:04.141Z,112
2018-06-19T03:20:30.275Z,116
2018-06-19T03:20:56.418Z,116
2018-06-19T03:21:22.582Z,116
2018-06-19T03:21:48.755Z,112
2018-06-19T03:22:14.911Z,112
2018-06-19T03:22:41.077Z,112
2018-06-19T03:23:07.214Z,112
2018-06-19T03:23:33.349Z,112
2018-06-19T03:23:59.509Z,112
2018-06-19T03:24:25.656Z,112
2018-06-19T03:24:51.793Z,112
2018-06-19T03:25:17.929Z,112
2018-06-19T03:25:44.078Z,108
2018-06-19T03:26:10.214Z,112
2018-06-19T03:26:36.402Z,108
2018-06-19T03:27:02.549Z,108
2018-06-19T03:27:28.685Z,108
2018-06-19T03:27:54.822Z,104
2018-06-19T03:28:20.983Z,104
2018-06-19T03:28:47.122Z,100
2018-06-19T03:29:13.257Z,100
2018-06-19T03:29:39.402Z,96
2018-06-19T03:30:05.611Z,100
2018-06-19T03:30:31.712Z,100
2018-06-19T03:30:57.898Z,100
2018-06-19T03:31:24.060Z,100
2018-06-19T03:31:50.220Z,104
2018-06-19T03:32:16.386Z,124
2018-06-19T03:32:42.548Z,140
2018-06-19T03:33:08.704Z,160
2018-06-19T03:33:34.941Z,172
2018-06-19T03:34:01.170Z,180
2018-06-19T03:34:27.344Z,192
2018-06-19T03:34:53.505Z,200
2018-06-19T03:35:19.645Z,208
2018-06-19T03:35:45.777Z,212
2018-06-19T03:36:11.923Z,220
2018-06-19T03:36:38.054Z,224
2018-06-19T03:37:04.199Z,232
2018-06-19T03:37:30.334Z,232
2018-06-19T03:37:56.476Z,232
2018-06-19T03:38:22.621Z,232
2018-06-19T03:38:48.757Z,236
2018-06-19T03:39:14.904Z,240
2018-06-19T03:39:41.067Z,248
2018-06-19T03:40:07.208Z,252
2018-06-19T03:40:33.381Z,268
2018-06-19T03:40:59.520Z,280
2018-06-19T03:41:25.690Z,288
2018-06-19T03:41:51.800Z,292
2018-06-19T03:42:17.936Z,300
2018-06-19T03:42:44.080Z,312
2018-06-19T03:43:10.213Z,324
2018-06-19T03:43:36.384Z,340
2018-06-19T03:44:02.521Z,356
2018-06-19T03:44:28.659Z,372
2018-06-19T03:44:54.827Z,380
2018-06-19T03:45:21.036Z,392
2018-06-19T03:45:47.171Z,396
2018-06-19T03:46:13.311Z,396
2018-06-19T03:46:39.455Z,404
2018-06-19T03:47:05.600Z,412
2018-06-19T03:47:31.761Z,432
2018-06-19T03:47:57.903Z,452
2018-06-19T03:48:24.067Z,468
2018-06-19T03:48:50.231Z,488
2018-06-19T03:49:16.367Z,500
2018-06-19T03:49:42.511Z,516
2018-06-19T03:50:08.648Z,528
2018-06-19T03:50:34.780Z,540
2018-06-19T03:51:00.945Z,548
2018-06-19T03:51:27.083Z,544
2018-06-19T03:51:53.219Z,532
2018-06-19T03:52:19.384Z,516
2018-06-19T03:52:45.520Z,508
2018-06-19T03:53:11.667Z,500
2018-06-19T03:53:37.805Z,484
2018-06-19T03:54:03.969Z,484
2018-06-19T03:54:30.113Z,484
2018-06-19T03:54:56.254Z,476
2018-06-19T03:55:22.419Z,472
2018-06-19T03:55:48.564Z,472
2018-06-19T03:56:14.725Z,488
2018-06-19T03:56:40.888Z,520
2018-06-19T03:57:07.027Z,552
2018-06-19T03:57:33.160Z,572
2018-06-19T03:57:59.322Z,572
2018-06-19T03:58:25.465Z,556
2018-06-19T03:58:51.609Z,536
2018-06-19T03:59:17.778Z,528
2018-06-19T03:59:43.912Z,528
2018-06-19T04:00:10.047Z,528
2018-06-19T04:00:36.190Z,524
2018-06-19T04:01:02.354Z,516
2018-06-19T04:01:28.525Z,512
2018-06-19T04:01:54.665Z,524
2018-06-19T04:02:20.806Z,552
2018-06-19T04:02:46.952Z,604
2018-06-19T04:03:13.115Z,672
2018-06-19T04:03:39.252Z,736
2018-06-19T04:04:05.387Z,784
2018-06-19T04:04:31.533Z,816
2018-06-19T04:04:57.671Z,844
2018-06-19T04:05:23.834Z,856
2018-06-19T04:05:49.973Z,848
2018-06-19T04:06:16.110Z,840
2018-06-19T04:06:42.250Z,844
2018-06-19T04:07:08.413Z,844
2018-06-19T04:07:34.582Z,840
2018-06-19T04:08:00.716Z,836
2018-06-19T04:08:26.859Z,844
2018-06-19T04:08:53.000Z,852
2018-06-19T04:09:19.139Z,856
2018-06-19T04:09:45.283Z,864
2018-06-19T04:10:11.422Z,892
2018-06-19T04:10:37.585Z,936
2018-06-19T04:11:03.721Z,984
2018-06-19T04:11:29.856Z,1076
2018-06-19T04:11:56.057Z,1164
2018-06-19T04:12:22.213Z,1200
2018-06-19T04:12:48.362Z,1200
2018-06-19T04:13:14.500Z,1180
2018-06-19T04:13:40.659Z,1144
2018-06-19T04:14:06.820Z,1084
2018-06-19T04:14:32.962Z,1016
2018-06-19T04:14:59.101Z,940
2018-06-19T04:15:25.237Z,884
2018-06-19T04:15:51.380Z,844
2018-06-19T04:16:17.519Z,808
2018-06-19T04:16:43.687Z,804
2018-06-19T04:17:09.884Z,844
2018-06-19T04:17:35.958Z,924
2018-06-19T04:18:02.105Z,980
2018-06-19T04:18:28.271Z,992
2018-06-19T04:18:54.408Z,1012
2018-06-19T04:19:20.544Z,1068
2018-06-19T04:19:46.713Z,1108
2018-06-19T04:20:12.882Z,1132
2018-06-19T04:20:39.030Z,1140
2018-06-19T04:21:05.164Z,1124
2018-06-19T04:21:31.300Z,1084
2018-06-19T04:21:57.433Z,1076
2018-06-19T04:22:23.570Z,1076
2018-06-19T04:22:49.708Z,1060
2018-06-19T04:23:15.878Z,1064
2018-06-19T04:23:42.017Z,1112
2018-06-19T04:24:08.188Z,1172
2018-06-19T04:24:34.327Z,1196
2018-06-19T04:25:00.471Z,1196
2018-06-19T04:25:26.629Z,1180
2018-06-19T04:25:52.768Z,1128
2018-06-19T04:26:18.907Z,1064
2018-06-19T04:26:45.096Z,1004
2018-06-19T04:27:11.242Z,952
2018-06-19T04:27:37.370Z,908
2018-06-19T04:28:03.510Z,864
2018-06-19T04:28:29.648Z,856
2018-06-19T04:28:55.782Z,896
2018-06-19T04:29:21.949Z,960
2018-06-19T04:29:48.082Z,1040
2018-06-19T04:30:14.223Z,1128
2018-06-19T04:30:40.395Z,1192
2018-06-19T04:31:06.532Z,1240
2018-06-19T04:31:32.673Z,1312
2018-06-19T04:31:58.813Z,1368
2018-06-19T04:32:24.950Z,1436
2018-06-19T04:32:51.086Z,1492
2018-06-19T04:33:17.305Z,1552
2018-06-19T04:33:43.403Z,1628
2018-06-19T04:34:09.540Z,1768
2018-06-19T04:34:35.680Z,1960
2018-06-19T04:35:01.853Z,2184
2018-06-19T04:35:27.989Z,2412
2018-06-19T04:35:54.129Z,2584
2018-06-19T04:36:20.289Z,2756
2018-06-19T04:36:46.430Z,2932
2018-06-19T04:37:12.564Z,3096
2018-06-19T04:37:38.704Z,3136
2018-06-19T04:38:04.842Z,3172
2018-06-19T04:38:30.985Z,3108
2018-06-19T04:38:57.124Z,2976
2018-06-19T04:39:23.261Z,2868
2018-06-19T04:39:49.401Z,2712
2018-06-19T04:40:15.549Z,2552
2018-06-19T04:40:41.728Z,2372
2018-06-19T04:41:07.873Z,2176
2018-06-19T04:41:34.033Z,1992
2018-06-19T04:42:00.229Z,1852
2018-06-19T04:42:26.328Z,1724
2018-06-19T04:42:52.463Z,1608
2018-06-19T04:43:18.608Z,1512
2018-06-19T04:43:44.749Z,1460
2018-06-19T04:44:10.892Z,1452
2018-06-19T04:44:37.035Z,1448
2018-06-19T04:45:03.173Z,1440
2018-06-19T04:45:29.329Z,1460
2018-06-19T04:45:55.472Z,1480
2018-06-19T04:46:21.615Z,1508
2018-06-19T04:46:47.750Z,1560
2018-06-19T04:47:13.883Z,1612
2018-06-19T04:47:40.027Z,1668
2018-06-19T04:48:06.170Z,1748
2018-06-19T04:48:32.314Z,1852
2018-06-19T04:48:58.454Z,1976
2018-06-19T04:49:24.604Z,2100
2018-06-19T04:49:50.771Z,2228
2018-06-19T04:50:16.868Z,2348
2018-06-19T04:50:43.016Z,2476
2018-06-19T04:51:09.158Z,2632
2018-06-19T04:51:35.305Z,2820
2018-06-19T04:52:01.484Z,2988
2018-06-19T04:52:27.625Z,3188
2018-06-19T04:52:53.789Z,3420
2018-06-19T04:53:19.949Z,3592
2018-06-19T04:53:46.113Z,3668
2018-06-19T04:54:12.248Z,3684
2018-06-19T04:54:38.392Z,3708
2018-06-19T04:55:04.540Z,3704
2018-06-19T04:55:30.676Z,3620
2018-06-19T04:55:56.815Z,3544
2018-06-19T04:56:22.975Z,3464
2018-06-19T04:56:49.140Z,3424
2018-06-19T04:57:15.282Z,3508
2018-06-19T04:57:41.427Z,3616
2018-06-19T04:58:07.561Z,3616
2018-06-19T04:58:33.708Z,3556
2018-06-19T04:58:59.848Z,3472
2018-06-19T04:59:25.980Z,3424
2018-06-19T04:59:52.124Z,3404
2018-06-19T05:00:18.267Z,3400
2018-06-19T05:00:44.426Z,3356
2018-06-19T05:01:10.595Z,3276
2018-06-19T05:01:36.732Z,3240
2018-06-19T05:02:02.895Z,3252
2018-06-19T05:02:29.040Z,3280
2018-06-19T05:02:55.201Z,3328
2018-06-19T05:03:21.368Z,3404
2018-06-19T05:03:47.512Z,3496
2018-06-19T05:04:13.666Z,3580
2018-06-19T05:04:39.799Z,3676
2018-06-19T05:05:05.944Z,3724
2018-06-19T05:05:32.106Z,3752
2018-06-19T05:05:58.239Z,3760
2018-06-19T05:06:24.397Z,3796
2018-06-19T05:06:50.541Z,3844
2018-06-19T05:07:16.719Z,3892
2018-06-19T05:07:42.852Z,3944
2018-06-19T05:08:08.990Z,3948
2018-06-19T05:08:35.126Z,3920
2018-06-19T05:09:01.267Z,3760
2018-06-19T05:09:27.406Z,3656
2018-06-19T05:09:53.552Z,3588
2018-06-19T05:10:19.743Z,3620
2018-06-19T05:10:45.883Z,3568
2018-06-19T05:11:12.052Z,3444
2018-06-19T05:11:38.193Z,3248
2018-06-19T05:12:04.330Z,3052
2018-06-19T05:12:30.470Z,2896
2018-06-19T05:12:56.727Z,2716
2018-06-19T05:13:22.768Z,2596
2018-06-19T05:13:48.958Z,2464
2018-06-19T05:14:15.099Z,2288
2018-06-19T05:14:41.235Z,2284
2018-06-19T05:15:07.370Z,2448
2018-06-19T05:15:33.511Z,2564
2018-06-19T05:15:59.658Z,2608
2018-06-19T05:16:25.794Z,2504
2018-06-19T05:16:51.936Z,2380
2018-06-19T05:17:18.073Z,2376
2018-06-19T05:17:44.217Z,2600
2018-06-19T05:18:10.356Z,2956
2018-06-19T05:18:36.501Z,3492
2018-06-19T05:19:02.662Z,4036
2018-06-19T05:19:28.805Z,4420
2018-06-19T05:19:54.944Z,4680
2018-06-19T05:20:21.172Z,4928
2018-06-19T05:20:47.245Z,5116
2018-06-19T05:21:13.392Z,5208
2018-06-19T05:21:39.533Z,5176
2018-06-19T05:22:05.678Z,5088
2018-06-19T05:22:31.842Z,4984
2018-06-19T05:22:57.974Z,4936
2018-06-19T05:23:24.115Z,5008
2018-06-19T05:23:50.264Z,5124
2018-06-19T05:24:16.405Z,5244
2018-06-19T05:24:42.537Z,5400
2018-06-19T05:25:08.688Z,5508
2018-06-19T05:25:34.826Z,5544
2018-06-19T05:26:00.965Z,5568
2018-06-19T05:26:27.117Z,5548
2018-06-19T05:26:53.272Z,5448
2018-06-19T05:27:19.467Z,5336
2018-06-19T05:27:45.628Z,5176
2018-06-19T05:28:11.763Z,4928
2018-06-19T05:28:37.904Z,4600
2018-06-19T05:29:04.060Z,4372
2018-06-19T05:29:30.195Z,4312
2018-06-19T05:29:56.342Z,4380
2018-06-19T05:30:22.501Z,4416
2018-06-19T05:30:48.626Z,4332
2018-06-19T05:31:14.788Z,4332
2018-06-19T05:31:40.935Z,4364
2018-06-19T05:32:07.078Z,4440
2018-06-19T05:32:33.216Z,4492
2018-06-19T05:32:59.358Z,4544
2018-06-19T05:33:25.509Z,4584
2018-06-19T05:33:51.643Z,4652
2018-06-19T05:34:17.793Z,4668
2018-06-19T05:34:43.927Z,4712
2018-06-19T05:35:10.069Z,4832
2018-06-19T05:35:36.207Z,4956
2018-06-19T05:36:02.394Z,5096
2018-06-19T05:36:28.565Z,5328
2018-06-19T05:36:54.701Z,5564
2018-06-19T05:37:20.845Z,5588
2018-06-19T05:37:46.980Z,5516
2018-06-19T05:38:13.175Z,5360
2018-06-19T05:38:39.321Z,5268
2018-06-19T05:39:05.458Z,5176
2018-06-19T05:39:31.598Z,5112
2018-06-19T05:39:57.733Z,5108
2018-06-19T05:40:23.879Z,5140
2018-06-19T05:40:50.021Z,5196
2018-06-19T05:41:16.162Z,5300
2018-06-19T05:41:42.305Z,5404
2018-06-19T05:42:08.470Z,5436
2018-06-19T05:42:34.611Z,5432
2018-06-19T05:43:00.777Z,5416
2018-06-19T05:43:26.916Z,5368
2018-06-19T05:43:53.052Z,5356
2018-06-19T05:44:19.195Z,5404
2018-06-19T05:44:45.342Z,5520
2018-06-19T05:45:11.478Z,5696
2018-06-19T05:45:37.628Z,5808
2018-06-19T05:46:03.754Z,5896
2018-06-19T05:46:29.893Z,5888
2018-06-19T05:46:56.086Z,5872
2018-06-19T05:47:22.227Z,5812
2018-06-19T05:47:48.365Z,5780
2018-06-19T05:48:14.503Z,5840
2018-06-19T05:48:40.651Z,6072
2018-06-19T05:49:06.808Z,6236
2018-06-19T05:49:32.954Z,6292
2018-06-19T05:49:59.090Z,6396
2018-06-19T05:50:25.253Z,6476
2018-06-19T05:50:51.398Z,6456
2018-06-19T05:51:17.535Z,6444
2018-06-19T05:51:43.673Z,6428
2018-06-19T05:52:09.819Z,6452
2018-06-19T05:52:35.962Z,6540
2018-06-19T05:53:02.101Z,6604
2018-06-19T05:53:28.239Z,6620
2018-06-19T05:53:54.376Z,6552
2018-06-19T05:54:20.542Z,6436
2018-06-19T05:54:46.677Z,6180
2018-06-19T05:55:12.822Z,5964
2018-06-19T05:55:38.957Z,5908
2018-06-19T05:56:05.134Z,5992
2018-06-19T05:56:31.269Z,6176
2018-06-19T05:56:57.599Z,6280
2018-06-19T05:57:23.737Z,6280
2018-06-19T05:57:49.908Z,6256
2018-06-19T05:58:16.071Z,6120
2018-06-19T05:58:42.233Z,5928
2018-06-19T05:59:08.371Z,5832
2018-06-19T05:59:34.518Z,5756
2018-06-19T06:00:00.652Z,5768
2018-06-19T06:00:26.803Z,5868
2018-06-19T06:00:52.959Z,5948
2018-06-19T06:01:19.104Z,6028
2018-06-19T06:01:45.271Z,6052
2018-06-19T06:02:11.417Z,5844
2018-06-19T06:02:37.549Z,5432
2018-06-19T06:03:03.696Z,4964
2018-06-19T06:03:29.836Z,4744
2018-06-19T06:03:55.976Z,4712
2018-06-19T06:04:22.134Z,4796
2018-06-19T06:04:48.321Z,4860
2018-06-19T06:05:14.457Z,4672
2018-06-19T06:05:40.715Z,4476
2018-06-19T06:06:06.762Z,4704
2018-06-19T06:06:32.914Z,5012
2018-06-19T06:06:59.464Z,5256
2018-06-19T06:07:25.603Z,5356
2018-06-19T06:07:51.743Z,5448
2018-06-19T06:08:17.903Z,5396
2018-06-19T06:08:44.095Z,5256
2018-06-19T06:09:10.186Z,5076